sensor_id;sensor_type;location;lat;lon;timestamp;pressure;altitude;pressure_sealevel;temperature;humidity
13593;BME280;6867;50.998;4.250;2023-03-01T00:01:08;102490.09;;;0.79;60.51
13593;BME280;6867;50.998;4.250;2023-03-01T00:03:35;102515.69;;;0.78;60.93
13593;BME280;6867;50.998;4.250;2023-03-01T00:06:03;102503.78;;;0.85;60.69
13593;BME280;6867;50.998;4.250;2023-03-01T00:08:31;102492.84;;;0.77;60.42
13593;BME280;6867;50.998;4.250;2023-03-01T00:11:04;102501.94;;;0.73;60.52
13593;BME280;6867;50.998;4.250;2023-03-01T00:13:31;102505.72;;;0.69;60.54
13593;BME280;6867;50.998;4.250;2023-03-01T00:15:58;102503.28;;;0.66;61.01
13593;BME280;6867;50.998;4.250;2023-03-01T00:18:25;102500.03;;;0.75;60.70
13593;BME280;6867;50.998;4.250;2023-03-01T00:20:52;102501.94;;;0.73;60.37
13593;BME280;6867;50.998;4.250;2023-03-01T00:23:20;102504.88;;;0.68;60.87
13593;BME280;6867;50.998;4.250;2023-03-01T00:25:48;102504.44;;;0.62;60.94
13593;BME280;6867;50.998;4.250;2023-03-01T00:28:15;102507.19;;;0.60;60.88
13593;BME280;6867;50.998;4.250;2023-03-01T00:30:42;102496.91;;;0.56;61.16
13593;BME280;6867;50.998;4.250;2023-03-01T00:33:09;102496.94;;;0.41;61.53
13593;BME280;6867;50.998;4.250;2023-03-01T00:35:36;102502.63;;;0.35;61.46
13593;BME280;6867;50.998;4.250;2023-03-01T00:38:03;102507.38;;;0.30;61.46
13593;BME280;6867;50.998;4.250;2023-03-01T00:40:32;102508.53;;;0.53;61.51
13593;BME280;6867;50.998;4.250;2023-03-01T00:43:01;102495.25;;;0.40;61.52
13593;BME280;6867;50.998;4.250;2023-03-01T00:45:28;102490.03;;;0.26;61.43
13593;BME280;6867;50.998;4.250;2023-03-01T00:47:56;102488.91;;;0.16;62.07
13593;BME280;6867;50.998;4.250;2023-03-01T00:50:23;102493.09;;;0.06;62.21
13593;BME280;6867;50.998;4.250;2023-03-01T00:52:52;102508.38;;;0.01;62.48
13593;BME280;6867;50.998;4.250;2023-03-01T00:55:19;102531.88;;;0.05;62.77
13593;BME280;6867;50.998;4.250;2023-03-01T00:57:45;102536.75;;;0.11;62.99
13593;BME280;6867;50.998;4.250;2023-03-01T01:00:14;102539.41;;;0.26;63.06
13593;BME280;6867;50.998;4.250;2023-03-01T01:02:41;102536.06;;;0.36;62.89
13593;BME280;6867;50.998;4.250;2023-03-01T01:05:08;102529.53;;;0.42;62.82
13593;BME280;6867;50.998;4.250;2023-03-01T01:07:35;102514.97;;;0.49;62.17
13593;BME280;6867;50.998;4.250;2023-03-01T01:10:03;102502.19;;;0.56;61.57
13593;BME280;6867;50.998;4.250;2023-03-01T01:12:30;102494.56;;;0.51;62.43
13593;BME280;6867;50.998;4.250;2023-03-01T01:14:56;102479.09;;;0.72;61.60
13593;BME280;6867;50.998;4.250;2023-03-01T01:17:24;102476.03;;;0.78;61.19
13593;BME280;6867;50.998;4.250;2023-03-01T01:19:51;102467.44;;;0.74;61.32
13593;BME280;6867;50.998;4.250;2023-03-01T01:22:18;102469.03;;;0.77;61.28
13593;BME280;6867;50.998;4.250;2023-03-01T01:24:44;102460.47;;;0.86;61.05
13593;BME280;6867;50.998;4.250;2023-03-01T01:27:11;102441.56;;;0.92;60.86
13593;BME280;6867;50.998;4.250;2023-03-01T01:29:38;102430.88;;;1.07;60.16
13593;BME280;6867;50.998;4.250;2023-03-01T01:32:05;102424.28;;;0.99;60.10
13593;BME280;6867;50.998;4.250;2023-03-01T01:34:33;102435.06;;;0.71;60.88
13593;BME280;6867;50.998;4.250;2023-03-01T01:36:59;102441.56;;;0.53;61.25
13593;BME280;6867;50.998;4.250;2023-03-01T01:39:28;102453.66;;;0.57;61.45
13593;BME280;6867;50.998;4.250;2023-03-01T01:41:54;102433.31;;;0.44;61.46
13593;BME280;6867;50.998;4.250;2023-03-01T01:44:23;102452.75;;;0.43;61.80
13593;BME280;6867;50.998;4.250;2023-03-01T01:46:54;102455.59;;;0.40;62.00
13593;BME280;6867;50.998;4.250;2023-03-01T01:49:30;102450.31;;;0.40;61.87
13593;BME280;6867;50.998;4.250;2023-03-01T01:52:05;102447.31;;;0.32;61.79
13593;BME280;6867;50.998;4.250;2023-03-01T01:54:40;102451.31;;;0.25;61.87
13593;BME280;6867;50.998;4.250;2023-03-01T01:57:12;102453.22;;;0.23;62.62
13593;BME280;6867;50.998;4.250;2023-03-01T01:59:43;102461.31;;;0.20;62.30
13593;BME280;6867;50.998;4.250;2023-03-01T02:02:12;102464.44;;;0.27;62.84
13593;BME280;6867;50.998;4.250;2023-03-01T02:04:40;102455.75;;;0.24;62.50
13593;BME280;6867;50.998;4.250;2023-03-01T02:07:14;102461.69;;;0.28;63.01
13593;BME280;6867;50.998;4.250;2023-03-01T02:09:45;102438.25;;;0.09;62.48
13593;BME280;6867;50.998;4.250;2023-03-01T02:12:13;102449.75;;;0.08;63.16
13593;BME280;6867;50.998;4.250;2023-03-01T02:14:40;102451.47;;;0.09;62.79
13593;BME280;6867;50.998;4.250;2023-03-01T02:17:07;102442.88;;;0.06;63.02
13593;BME280;6867;50.998;4.250;2023-03-01T02:19:42;102435.34;;;-0.01;62.76
13593;BME280;6867;50.998;4.250;2023-03-01T02:22:19;102441.22;;;-0.10;63.29
13593;BME280;6867;50.998;4.250;2023-03-01T02:24:57;102456.22;;;-0.10;63.53
13593;BME280;6867;50.998;4.250;2023-03-01T02:27:32;102453.88;;;-0.15;63.62
13593;BME280;6867;50.998;4.250;2023-03-01T02:30:03;102461.03;;;-0.17;64.33
13593;BME280;6867;50.998;4.250;2023-03-01T02:32:32;102478.00;;;-0.21;64.04
13593;BME280;6867;50.998;4.250;2023-03-01T02:34:57;102468.31;;;-0.20;64.58
13593;BME280;6867;50.998;4.250;2023-03-01T02:37:26;102461.97;;;-0.18;64.15
13593;BME280;6867;50.998;4.250;2023-03-01T02:39:56;102435.97;;;-0.24;64.25
13593;BME280;6867;50.998;4.250;2023-03-01T02:42:26;102448.13;;;-0.36;64.82
13593;BME280;6867;50.998;4.250;2023-03-01T02:44:55;102435.22;;;-0.40;64.69
13593;BME280;6867;50.998;4.250;2023-03-01T02:47:23;102446.53;;;-0.38;64.95
13593;BME280;6867;50.998;4.250;2023-03-01T02:49:50;102435.22;;;-0.40;64.83
13593;BME280;6867;50.998;4.250;2023-03-01T02:52:30;102451.81;;;-0.38;65.06
13593;BME280;6867;50.998;4.250;2023-03-01T02:55:02;102444.47;;;-0.47;64.80
13593;BME280;6867;50.998;4.250;2023-03-01T02:57:31;102445.88;;;-0.42;65.09
13593;BME280;6867;50.998;4.250;2023-03-01T03:00:02;102455.56;;;-0.42;65.21
13593;BME280;6867;50.998;4.250;2023-03-01T03:02:34;102460.88;;;-0.28;65.54
13593;BME280;6867;50.998;4.250;2023-03-01T03:05:07;102455.75;;;-0.17;65.08
13593;BME280;6867;50.998;4.250;2023-03-01T03:07:35;102437.53;;;-0.21;64.83
13593;BME280;6867;50.998;4.250;2023-03-01T03:10:05;102434.34;;;-0.27;64.83
13593;BME280;6867;50.998;4.250;2023-03-01T03:12:32;102438.97;;;-0.30;65.02
13593;BME280;6867;50.998;4.250;2023-03-01T03:14:59;102427.00;;;-0.36;64.82
13593;BME280;6867;50.998;4.250;2023-03-01T03:17:26;102440.69;;;-0.43;65.58
13593;BME280;6867;50.998;4.250;2023-03-01T03:19:54;102445.50;;;-0.36;65.66
13593;BME280;6867;50.998;4.250;2023-03-01T03:22:21;102433.44;;;-0.40;65.10
13593;BME280;6867;50.998;4.250;2023-03-01T03:24:47;102426.75;;;-0.45;65.31
13593;BME280;6867;50.998;4.250;2023-03-01T03:27:14;102428.81;;;-0.51;65.25
13593;BME280;6867;50.998;4.250;2023-03-01T03:29:41;102418.34;;;-0.52;65.09
13593;BME280;6867;50.998;4.250;2023-03-01T03:32:07;102435.13;;;-0.53;65.60
13593;BME280;6867;50.998;4.250;2023-03-01T03:34:34;102439.19;;;-0.47;65.14
13593;BME280;6867;50.998;4.250;2023-03-01T03:37:02;102442.09;;;-0.52;65.25
13593;BME280;6867;50.998;4.250;2023-03-01T03:39:29;102427.50;;;-0.58;65.17
13593;BME280;6867;50.998;4.250;2023-03-01T03:42:00;102425.16;;;-0.62;65.41
13593;BME280;6867;50.998;4.250;2023-03-01T03:44:27;102424.50;;;-0.66;65.46
13593;BME280;6867;50.998;4.250;2023-03-01T03:46:53;102429.94;;;-0.69;65.84
13593;BME280;6867;50.998;4.250;2023-03-01T03:49:20;102420.34;;;-0.70;65.54
13593;BME280;6867;50.998;4.250;2023-03-01T03:51:47;102423.25;;;-0.74;65.54
13593;BME280;6867;50.998;4.250;2023-03-01T03:54:15;102415.03;;;-0.84;65.38
13593;BME280;6867;50.998;4.250;2023-03-01T03:56:42;102426.66;;;-0.87;65.55
13593;BME280;6867;50.998;4.250;2023-03-01T03:59:09;102429.63;;;-0.93;66.01
13593;BME280;6867;50.998;4.250;2023-03-01T04:01:36;102431.44;;;-0.93;66.01
13593;BME280;6867;50.998;4.250;2023-03-01T04:04:03;102431.59;;;-0.96;66.05
13593;BME280;6867;50.998;4.250;2023-03-01T04:06:33;102425.69;;;-1.00;65.70
13593;BME280;6867;50.998;4.250;2023-03-01T04:08:59;102421.91;;;-1.10;65.77
13593;BME280;6867;50.998;4.250;2023-03-01T04:11:29;102419.53;;;-1.15;66.44
13593;BME280;6867;50.998;4.250;2023-03-01T04:13:57;102428.47;;;-1.17;66.49
13593;BME280;6867;50.998;4.250;2023-03-01T04:16:25;102432.22;;;-1.21;66.54
13593;BME280;6867;50.998;4.250;2023-03-01T04:18:52;102435.91;;;-1.24;66.52
13593;BME280;6867;50.998;4.250;2023-03-01T04:21:20;102447.81;;;-1.17;67.10
13593;BME280;6867;50.998;4.250;2023-03-01T04:23:47;102442.75;;;-1.21;66.76
13593;BME280;6867;50.998;4.250;2023-03-01T04:26:18;102460.47;;;-1.23;67.28
13593;BME280;6867;50.998;4.250;2023-03-01T04:28:46;102470.41;;;-1.13;67.59
13593;BME280;6867;50.998;4.250;2023-03-01T04:31:16;102460.47;;;-1.23;67.60
13593;BME280;6867;50.998;4.250;2023-03-01T04:33:45;102470.59;;;-1.16;67.66
13593;BME280;6867;50.998;4.250;2023-03-01T04:36:14;102472.94;;;-1.11;67.60
13593;BME280;6867;50.998;4.250;2023-03-01T04:38:41;102467.69;;;-1.11;67.48
13593;BME280;6867;50.998;4.250;2023-03-01T04:41:09;102464.88;;;-1.08;67.74
13593;BME280;6867;50.998;4.250;2023-03-01T04:43:37;102471.16;;;-1.11;67.36
13593;BME280;6867;50.998;4.250;2023-03-01T04:46:07;102474.63;;;-1.10;67.62
13593;BME280;6867;50.998;4.250;2023-03-01T04:48:35;102480.59;;;-1.07;68.08
13593;BME280;6867;50.998;4.250;2023-03-01T04:51:02;102456.69;;;-0.89;67.31
13593;BME280;6867;50.998;4.250;2023-03-01T04:53:29;102435.19;;;-0.97;67.28
13593;BME280;6867;50.998;4.250;2023-03-01T04:55:56;102433.34;;;-0.95;67.25
13593;BME280;6867;50.998;4.250;2023-03-01T04:58:23;102441.63;;;-0.87;66.91
13593;BME280;6867;50.998;4.250;2023-03-01T05:00:50;102425.81;;;-0.87;67.19
13593;BME280;6867;50.998;4.250;2023-03-01T05:03:18;102419.00;;;-0.91;66.66
13593;BME280;6867;50.998;4.250;2023-03-01T05:05:48;102401.75;;;-0.97;66.64
13593;BME280;6867;50.998;4.250;2023-03-01T05:08:15;102404.38;;;-0.97;66.56
13593;BME280;6867;50.998;4.250;2023-03-01T05:10:44;102407.31;;;-1.02;66.99
13593;BME280;6867;50.998;4.250;2023-03-01T05:13:13;102406.56;;;-1.04;66.95
13593;BME280;6867;50.998;4.250;2023-03-01T05:15:46;102398.81;;;-1.07;66.95
13593;BME280;6867;50.998;4.250;2023-03-01T05:18:13;102507.59;;;-0.73;69.45
13593;BME280;6867;50.998;4.250;2023-03-01T05:20:42;102456.72;;;-0.75;68.47
13593;BME280;6867;50.998;4.250;2023-03-01T05:23:10;102431.81;;;-0.85;68.13
13593;BME280;6867;50.998;4.250;2023-03-01T05:25:37;102439.16;;;-0.90;68.36
13593;BME280;6867;50.998;4.250;2023-03-01T05:28:06;102437.66;;;-0.94;68.53
13593;BME280;6867;50.998;4.250;2023-03-01T05:30:34;102430.41;;;-0.91;68.27
13593;BME280;6867;50.998;4.250;2023-03-01T05:33:01;102427.31;;;-0.83;68.50
13593;BME280;6867;50.998;4.250;2023-03-01T05:35:28;102408.47;;;-0.91;67.76
13593;BME280;6867;50.998;4.250;2023-03-01T05:37:59;102412.63;;;-0.87;67.70
13593;BME280;6867;50.998;4.250;2023-03-01T05:40:26;102391.97;;;-0.95;67.62
13593;BME280;6867;50.998;4.250;2023-03-01T05:42:54;102383.56;;;-1.02;67.42
13593;BME280;6867;50.998;4.250;2023-03-01T05:45:22;102379.81;;;-1.12;67.17
13593;BME280;6867;50.998;4.250;2023-03-01T05:47:51;102383.75;;;-1.19;67.44
13593;BME280;6867;50.998;4.250;2023-03-01T05:50:19;102388.34;;;-1.22;67.63
13593;BME280;6867;50.998;4.250;2023-03-01T05:52:48;102391.09;;;-1.24;67.97
13593;BME280;6867;50.998;4.250;2023-03-01T05:55:17;102387.78;;;-1.28;68.11
13593;BME280;6867;50.998;4.250;2023-03-01T05:57:45;102391.34;;;-1.29;67.79
13593;BME280;6867;50.998;4.250;2023-03-01T06:00:13;102388.91;;;-1.32;68.02
13593;BME280;6867;50.998;4.250;2023-03-01T06:02:41;102384.63;;;-1.34;67.88
13593;BME280;6867;50.998;4.250;2023-03-01T06:05:09;102389.16;;;-1.36;67.55
13593;BME280;6867;50.998;4.250;2023-03-01T06:07:36;102380.69;;;-1.41;67.70
13593;BME280;6867;50.998;4.250;2023-03-01T06:10:03;102389.44;;;-1.41;67.79
13593;BME280;6867;50.998;4.250;2023-03-01T06:12:32;102395.56;;;-1.40;68.05
13593;BME280;6867;50.998;4.250;2023-03-01T06:14:59;102390.00;;;-1.36;68.27
13593;BME280;6867;50.998;4.250;2023-03-01T06:17:29;102379.84;;;-1.42;67.96
13593;BME280;6867;50.998;4.250;2023-03-01T06:19:56;102387.56;;;-1.39;68.41
13593;BME280;6867;50.998;4.250;2023-03-01T06:22:23;102396.53;;;-1.27;68.66
13593;BME280;6867;50.998;4.250;2023-03-01T06:24:49;102409.38;;;-1.21;68.34
13593;BME280;6867;50.998;4.250;2023-03-01T06:27:16;102404.66;;;-1.16;68.52
13593;BME280;6867;50.998;4.250;2023-03-01T06:29:44;102405.97;;;-1.09;68.25
13593;BME280;6867;50.998;4.250;2023-03-01T06:32:11;102404.72;;;-1.17;68.19
13593;BME280;6867;50.998;4.250;2023-03-01T06:34:37;102407.47;;;-1.19;68.84
13593;BME280;6867;50.998;4.250;2023-03-01T06:37:04;102403.88;;;-1.18;68.82
13593;BME280;6867;50.998;4.250;2023-03-01T06:39:32;102410.00;;;-1.17;68.61
13593;BME280;6867;50.998;4.250;2023-03-01T06:41:59;102413.81;;;-1.07;68.69
13593;BME280;6867;50.998;4.250;2023-03-01T06:44:26;102398.25;;;-1.12;68.53
13593;BME280;6867;50.998;4.250;2023-03-01T06:46:54;102402.41;;;-1.08;68.51
13593;BME280;6867;50.998;4.250;2023-03-01T06:49:21;102396.94;;;-1.05;68.29
13593;BME280;6867;50.998;4.250;2023-03-01T06:51:48;102393.38;;;-1.04;68.25
13593;BME280;6867;50.998;4.250;2023-03-01T06:54:14;102394.97;;;-1.01;68.32
13593;BME280;6867;50.998;4.250;2023-03-01T06:56:43;102407.91;;;-0.82;68.81
13593;BME280;6867;50.998;4.250;2023-03-01T06:59:09;102409.75;;;-0.84;68.27
13593;BME280;6867;50.998;4.250;2023-03-01T07:01:36;102417.50;;;-0.81;68.54
13593;BME280;6867;50.998;4.250;2023-03-01T07:04:05;102423.44;;;-0.63;68.31
13593;BME280;6867;50.998;4.250;2023-03-01T07:06:32;102415.34;;;-0.74;68.52
13593;BME280;6867;50.998;4.250;2023-03-01T07:08:59;102431.91;;;-0.72;68.93
13593;BME280;6867;50.998;4.250;2023-03-01T07:11:26;102448.91;;;-0.62;68.89
13593;BME280;6867;50.998;4.250;2023-03-01T07:13:52;102455.41;;;-0.54;69.34
13593;BME280;6867;50.998;4.250;2023-03-01T07:16:20;102451.44;;;-0.46;68.51
13593;BME280;6867;50.998;4.250;2023-03-01T07:18:47;102450.00;;;-0.38;69.04
13593;BME280;6867;50.998;4.250;2023-03-01T07:21:15;102454.94;;;-0.32;68.94
13593;BME280;6867;50.998;4.250;2023-03-01T07:23:42;102453.38;;;-0.21;68.50
13593;BME280;6867;50.998;4.250;2023-03-01T07:26:09;102458.56;;;-0.06;68.79
13593;BME280;6867;50.998;4.250;2023-03-01T07:28:35;102449.00;;;0.06;68.09
13593;BME280;6867;50.998;4.250;2023-03-01T07:31:04;102440.84;;;0.23;68.25
13593;BME280;6867;50.998;4.250;2023-03-01T07:33:31;102420.59;;;0.37;67.55
13593;BME280;6867;50.998;4.250;2023-03-01T07:35:59;102426.13;;;0.46;67.37
13593;BME280;6867;50.998;4.250;2023-03-01T07:38:28;102417.47;;;0.57;67.26
13593;BME280;6867;50.998;4.250;2023-03-01T07:40:58;102415.81;;;0.69;67.02
13593;BME280;6867;50.998;4.250;2023-03-01T07:43:25;102403.09;;;0.74;66.84
13593;BME280;6867;50.998;4.250;2023-03-01T07:45:52;102387.47;;;0.84;66.42
13593;BME280;6867;50.998;4.250;2023-03-01T07:48:18;102377.94;;;1.07;66.00
13593;BME280;6867;50.998;4.250;2023-03-01T07:50:45;102375.94;;;1.23;65.47
13593;BME280;6867;50.998;4.250;2023-03-01T07:53:12;102358.84;;;1.40;65.08
13593;BME280;6867;50.998;4.250;2023-03-01T07:55:40;102341.28;;;1.39;64.33
13593;BME280;6867;50.998;4.250;2023-03-01T07:58:07;102331.06;;;1.45;64.19
13593;BME280;6867;50.998;4.250;2023-03-01T08:00:34;102332.78;;;1.70;63.82
13593;BME280;6867;50.998;4.250;2023-03-01T08:03:01;102322.97;;;1.84;63.52
13593;BME280;6867;50.998;4.250;2023-03-01T08:05:28;102296.19;;;1.88;62.53
13593;BME280;6867;50.998;4.250;2023-03-01T08:07:55;102296.94;;;2.02;62.72
13593;BME280;6867;50.998;4.250;2023-03-01T08:10:21;102275.88;;;2.11;61.79
13593;BME280;6867;50.998;4.250;2023-03-01T08:12:51;102268.56;;;2.15;61.80
13593;BME280;6867;50.998;4.250;2023-03-01T08:15:18;102270.38;;;2.25;61.76
13593;BME280;6867;50.998;4.250;2023-03-01T08:17:45;102267.97;;;2.22;61.57
13593;BME280;6867;50.998;4.250;2023-03-01T08:20:12;102252.09;;;2.45;61.03
13593;BME280;6867;50.998;4.250;2023-03-01T08:22:38;102228.47;;;2.53;60.50
13593;BME280;6867;50.998;4.250;2023-03-01T08:25:05;102248.84;;;2.75;60.26
13593;BME280;6867;50.998;4.250;2023-03-01T08:27:32;102225.31;;;3.04;59.64
13593;BME280;6867;50.998;4.250;2023-03-01T08:30:00;102219.25;;;3.13;58.71
13593;BME280;6867;50.998;4.250;2023-03-01T08:32:27;102223.66;;;3.46;58.54
13593;BME280;6867;50.998;4.250;2023-03-01T08:34:53;102204.19;;;3.57;57.84
13593;BME280;6867;50.998;4.250;2023-03-01T08:37:20;102203.31;;;3.68;57.66
13593;BME280;6867;50.998;4.250;2023-03-01T08:39:47;102176.75;;;3.57;57.23
13593;BME280;6867;50.998;4.250;2023-03-01T08:42:13;102179.03;;;3.61;57.82
13593;BME280;6867;50.998;4.250;2023-03-01T08:44:40;102176.34;;;3.72;57.04
13593;BME280;6867;50.998;4.250;2023-03-01T08:47:08;102170.47;;;3.58;57.20
13593;BME280;6867;50.998;4.250;2023-03-01T08:49:35;102174.19;;;3.66;57.03
13593;BME280;6867;50.998;4.250;2023-03-01T08:52:02;102159.28;;;3.75;56.43
13593;BME280;6867;50.998;4.250;2023-03-01T08:54:29;102158.38;;;3.86;56.65
13593;BME280;6867;50.998;4.250;2023-03-01T08:56:55;102149.75;;;3.93;56.54
13593;BME280;6867;50.998;4.250;2023-03-01T08:59:25;102127.94;;;4.30;56.08
13593;BME280;6867;50.998;4.250;2023-03-01T09:01:52;102108.63;;;4.28;55.75
13593;BME280;6867;50.998;4.250;2023-03-01T09:04:20;102090.41;;;4.23;55.58
13593;BME280;6867;50.998;4.250;2023-03-01T09:06:46;102072.06;;;4.20;55.08
13593;BME280;6867;50.998;4.250;2023-03-01T09:09:15;102047.03;;;4.23;53.91
13593;BME280;6867;50.998;4.250;2023-03-01T09:11:42;102077.34;;;4.51;54.63
13593;BME280;6867;50.998;4.250;2023-03-01T09:14:11;102047.25;;;4.60;54.05
13593;BME280;6867;50.998;4.250;2023-03-01T09:16:38;102053.59;;;4.69;54.37
13593;BME280;6867;50.998;4.250;2023-03-01T09:19:05;102022.91;;;4.94;53.59
13593;BME280;6867;50.998;4.250;2023-03-01T09:21:33;102007.91;;;4.83;53.15
13593;BME280;6867;50.998;4.250;2023-03-01T09:24:00;101989.41;;;5.01;52.30
13593;BME280;6867;50.998;4.250;2023-03-01T09:26:26;102009.88;;;5.10;53.25
13593;BME280;6867;50.998;4.250;2023-03-01T09:28:55;102000.59;;;5.24;52.47
13593;BME280;6867;50.998;4.250;2023-03-01T09:31:23;101953.41;;;4.78;52.01
13593;BME280;6867;50.998;4.250;2023-03-01T09:33:52;101991.25;;;4.91;52.89
13593;BME280;6867;50.998;4.250;2023-03-01T09:36:22;101931.97;;;4.60;52.20
13593;BME280;6867;50.998;4.250;2023-03-01T09:38:50;101980.88;;;4.97;52.08
13593;BME280;6867;50.998;4.250;2023-03-01T09:41:32;101977.63;;;5.04;52.09
13593;BME280;6867;50.998;4.250;2023-03-01T09:44:08;101979.03;;;5.08;51.87
13593;BME280;6867;50.998;4.250;2023-03-01T09:46:40;101972.03;;;5.07;51.87
13593;BME280;6867;50.998;4.250;2023-03-01T09:49:10;101937.84;;;5.02;51.77
13593;BME280;6867;50.998;4.250;2023-03-01T09:51:38;101936.69;;;5.05;51.02
13593;BME280;6867;50.998;4.250;2023-03-01T09:54:08;101959.75;;;5.33;50.95
13593;BME280;6867;50.998;4.250;2023-03-01T09:56:39;101960.84;;;5.50;50.63
13593;BME280;6867;50.998;4.250;2023-03-01T09:59:17;101934.78;;;5.34;50.99
13593;BME280;6867;50.998;4.250;2023-03-01T10:01:51;101889.38;;;5.26;49.64
13593;BME280;6867;50.998;4.250;2023-03-01T10:04:28;101879.47;;;5.18;49.88
13593;BME280;6867;50.998;4.250;2023-03-01T10:07:13;101889.16;;;5.47;50.08
13593;BME280;6867;50.998;4.250;2023-03-01T10:09:46;101884.53;;;5.49;50.05
13593;BME280;6867;50.998;4.250;2023-03-01T10:12:16;101875.31;;;5.71;48.74
13593;BME280;6867;50.998;4.250;2023-03-01T10:14:48;101848.66;;;5.71;48.57
13593;BME280;6867;50.998;4.250;2023-03-01T10:17:26;101847.63;;;5.82;49.06
13593;BME280;6867;50.998;4.250;2023-03-01T10:19:55;101838.69;;;5.91;48.43
13593;BME280;6867;50.998;4.250;2023-03-01T10:22:27;101804.16;;;5.54;48.40
13593;BME280;6867;50.998;4.250;2023-03-01T10:24:58;101859.13;;;5.82;48.48
13593;BME280;6867;50.998;4.250;2023-03-01T10:27:32;101828.00;;;6.01;47.86
13593;BME280;6867;50.998;4.250;2023-03-01T10:30:07;101819.22;;;6.08;47.38
13593;BME280;6867;50.998;4.250;2023-03-01T10:32:41;101841.25;;;6.46;47.31
13593;BME280;6867;50.998;4.250;2023-03-01T10:35:17;101832.94;;;6.49;47.36
13593;BME280;6867;50.998;4.250;2023-03-01T10:37:57;101832.09;;;6.48;47.16
13593;BME280;6867;50.998;4.250;2023-03-01T10:40:25;101826.53;;;6.68;46.49
13593;BME280;6867;50.998;4.250;2023-03-01T10:42:52;101832.16;;;6.57;47.13
13593;BME280;6867;50.998;4.250;2023-03-01T10:45:34;101762.28;;;6.61;45.96
13593;BME280;6867;50.998;4.250;2023-03-01T10:48:13;101816.38;;;6.97;46.08
13593;BME280;6867;50.998;4.250;2023-03-01T10:50:40;101742.88;;;6.59;45.45
13593;BME280;6867;50.998;4.250;2023-03-01T10:53:20;101734.41;;;6.38;45.69
13593;BME280;6867;50.998;4.250;2023-03-01T10:55:57;101784.78;;;6.59;46.23
13593;BME280;6867;50.998;4.250;2023-03-01T10:58:25;101783.56;;;6.79;45.99
13593;BME280;6867;50.998;4.250;2023-03-01T11:00:53;101757.81;;;7.04;45.29
13593;BME280;6867;50.998;4.250;2023-03-01T11:03:22;101752.69;;;7.11;45.22
13593;BME280;6867;50.998;4.250;2023-03-01T11:06:03;101725.00;;;7.28;44.28
13593;BME280;6867;50.998;4.250;2023-03-01T11:08:36;101760.16;;;7.49;44.62
13593;BME280;6867;50.998;4.250;2023-03-01T11:11:21;101722.00;;;7.39;44.28
13593;BME280;6867;50.998;4.250;2023-03-01T11:13:54;101742.50;;;7.22;45.07
13593;BME280;6867;50.998;4.250;2023-03-01T11:16:34;101741.72;;;7.30;45.05
13593;BME280;6867;50.998;4.250;2023-03-01T11:19:16;101756.63;;;7.41;44.59
13593;BME280;6867;50.998;4.250;2023-03-01T11:21:56;101729.41;;;7.54;44.27
13593;BME280;6867;50.998;4.250;2023-03-01T11:24:31;101668.41;;;7.33;43.49
13593;BME280;6867;50.998;4.250;2023-03-01T11:27:04;101671.06;;;7.24;43.69
13593;BME280;6867;50.998;4.250;2023-03-01T11:29:35;101657.84;;;7.23;43.68
13593;BME280;6867;50.998;4.250;2023-03-01T11:32:07;101678.91;;;7.26;43.99
13593;BME280;6867;50.998;4.250;2023-03-01T11:34:40;101675.94;;;7.62;43.48
13593;BME280;6867;50.998;4.250;2023-03-01T11:37:16;101669.94;;;7.76;43.10
13593;BME280;6867;50.998;4.250;2023-03-01T11:39:53;101619.59;;;7.22;43.31
13593;BME280;6867;50.998;4.250;2023-03-01T11:42:29;101676.28;;;7.67;43.36
13593;BME280;6867;50.998;4.250;2023-03-01T11:45:02;101696.69;;;7.76;43.41
13593;BME280;6867;50.998;4.250;2023-03-01T11:47:44;101651.53;;;7.89;42.20
13593;BME280;6867;50.998;4.250;2023-03-01T11:50:19;101641.84;;;7.88;42.17
13593;BME280;6867;50.998;4.250;2023-03-01T11:53:00;101653.22;;;7.98;42.53
13593;BME280;6867;50.998;4.250;2023-03-01T11:55:43;101603.75;;;7.86;42.19
13593;BME280;6867;50.998;4.250;2023-03-01T11:58:27;101618.44;;;7.90;42.08
13593;BME280;6867;50.998;4.250;2023-03-01T12:01:03;101578.97;;;7.84;41.32
13593;BME280;6867;50.998;4.250;2023-03-01T12:03:47;101606.06;;;7.89;41.43
13593;BME280;6867;50.998;4.250;2023-03-01T12:06:29;101623.25;;;8.11;41.65
13593;BME280;6867;50.998;4.250;2023-03-01T12:09:11;101562.03;;;8.08;41.44
13593;BME280;6867;50.998;4.250;2023-03-01T12:11:55;101559.94;;;7.87;41.28
13593;BME280;6867;50.998;4.250;2023-03-01T12:14:47;101579.69;;;7.78;41.76
13593;BME280;6867;50.998;4.250;2023-03-01T12:17:33;101580.31;;;7.88;41.38
13593;BME280;6867;50.998;4.250;2023-03-01T12:20:22;101575.31;;;7.69;42.08
13593;BME280;6867;50.998;4.250;2023-03-01T12:23:11;101575.44;;;8.00;41.51
13593;BME280;6867;50.998;4.250;2023-03-01T12:25:45;101588.50;;;8.03;42.07
13593;BME280;6867;50.998;4.250;2023-03-01T12:28:31;101604.63;;;8.26;41.81
13593;BME280;6867;50.998;4.250;2023-03-01T12:34:01;101602.63;;;8.36;41.73
13593;BME280;6867;50.998;4.250;2023-03-01T12:39:44;101562.53;;;8.59;40.26
13593;BME280;6867;50.998;4.250;2023-03-01T12:42:23;101559.78;;;8.44;41.23
13593;BME280;6867;50.998;4.250;2023-03-01T12:45:02;101542.56;;;8.70;40.71
13593;BME280;6867;50.998;4.250;2023-03-01T12:47:47;101553.84;;;8.57;41.41
13593;BME280;6867;50.998;4.250;2023-03-01T12:50:19;101584.03;;;8.82;41.13
13593;BME280;6867;50.998;4.250;2023-03-01T12:52:50;101628.63;;;9.29;40.93
13593;BME280;6867;50.998;4.250;2023-03-01T12:55:26;101603.97;;;9.48;40.84
13593;BME280;6867;50.998;4.250;2023-03-01T12:58:03;101486.66;;;8.90;39.47
13593;BME280;6867;50.998;4.250;2023-03-01T13:00:36;101482.66;;;9.09;39.06
13593;BME280;6867;50.998;4.250;2023-03-01T13:03:14;101456.84;;;8.93;38.83
13593;BME280;6867;50.998;4.250;2023-03-01T13:05:56;101506.38;;;9.20;40.20
13593;BME280;6867;50.998;4.250;2023-03-01T13:08:33;101447.63;;;8.95;39.24
13593;BME280;6867;50.998;4.250;2023-03-01T13:11:04;101526.53;;;9.31;40.03
13593;BME280;6867;50.998;4.250;2023-03-01T13:13:31;101476.41;;;9.16;40.03
13593;BME280;6867;50.998;4.250;2023-03-01T13:19:11;101428.38;;;9.30;39.07
13593;BME280;6867;50.998;4.250;2023-03-01T13:21:40;101461.78;;;9.19;39.08
13593;BME280;6867;50.998;4.250;2023-03-01T13:24:25;101403.66;;;9.19;39.03
13593;BME280;6867;50.998;4.250;2023-03-01T13:27:21;101371.22;;;9.29;37.71
13593;BME280;6867;50.998;4.250;2023-03-01T13:29:51;101464.31;;;9.20;39.50
13593;BME280;6867;50.998;4.250;2023-03-01T13:32:21;101405.03;;;9.15;38.87